Time;durP1;ratioP1;P1;durP2;ratioP2;P2;SDS_P1;SDS_P2;PMS_P1;PMS_P2;Temp;Humidity;BMP_temperature;BMP_pressure;BME280_temperature;BME280_humidity;BME280_pressure;Samples;Min_cycle;Max_cycle;Signal;HPM_P1;HPM_P2
2023/09/11 00:00:57;;;;;;;5.82;2.22;;;;;;;-144.30;67.21;85038.63;5069260;28;20668;-54
2023/09/11 00:03:24;;;;;;;6.78;1.92;;;;;;;-144.30;67.19;84977.00;5069529;28;20196;-55
2023/09/11 00:05:51;;;;;;;3.03;2.67;;;;;;;-144.30;67.37;85012.78;5069220;28;20599;-54
2023/09/11 00:08:18;;;;;;;3.42;3.13;;;;;;;-144.30;67.77;85050.53;5069132;28;20223;-49
2023/09/11 00:10:45;;;;;;;4.03;2.17;;;;;;;-144.30;68.81;85040.59;5068659;28;20196;-55
2023/09/11 00:13:13;;;;;;;9.50;2.53;;;;;;;-144.30;69.51;85042.59;5068879;28;20195;-55
2023/09/11 00:15:40;;;;;;;3.10;2.28;;;;;;;-144.30;69.97;85010.78;5068727;28;20291;-56
2023/09/11 00:18:07;;;;;;;3.37;2.00;;;;;;;-144.30;70.37;85034.66;5071160;28;20234;-55
2023/09/11 00:20:34;;;;;;;2.93;2.30;;;;;;;-144.30;70.05;85048.56;5072554;28;20216;-55
2023/09/11 00:23:01;;;;;;;7.87;2.40;;;;;;;-144.30;69.97;85030.66;5072712;28;20199;-50
2023/09/11 00:25:29;;;;;;;2.70;2.23;;;;;;;-144.30;70.00;85058.50;5072452;28;20702;-48
2023/09/11 00:27:56;;;;;;;3.93;1.93;;;;;;;-144.30;70.55;85038.63;5073000;28;20200;-55
2023/09/11 00:30:24;;;;;;;6.70;2.40;;;;;;;-144.30;70.94;85114.16;5072796;28;20222;-49
2023/09/11 00:32:51;;;;;;;6.33;2.40;;;;;;;-144.30;71.58;85086.31;5072386;28;20592;-49
2023/09/11 00:35:18;;;;;;;2.93;2.60;;;;;;;-144.30;72.05;85018.75;5072642;28;20206;-49
2023/09/11 00:37:45;;;;;;;4.83;2.50;;;;;;;-144.30;72.33;85086.31;5072288;28;20644;-55
2023/09/11 00:40:12;;;;;;;4.33;2.87;;;;;;;-144.30;73.59;85074.41;5072154;28;20226;-49
2023/09/11 00:42:39;;;;;;;10.30;2.40;;;;;;;-144.30;74.17;85141.97;5071996;28;20203;-48
2023/09/11 00:45:06;;;;;;;4.17;2.20;;;;;;;-144.30;74.68;85118.13;5072506;28;20574;-55
2023/09/11 00:47:34;;;;;;;10.33;2.87;;;;;;;-144.30;74.99;85044.59;5072095;28;20583;-54
2023/09/11 00:50:02;;;;;;;5.70;2.17;;;;;;;-144.30;75.26;85122.09;5072250;28;20206;-49
2023/09/11 00:52:29;;;;;;;5.10;2.50;;;;;;;-144.30;75.34;85118.13;5072040;28;20199;-48
2023/09/11 00:54:56;;;;;;;3.30;2.43;;;;;;;-144.30;75.76;85092.28;5072264;28;20203;-54
2023/09/11 00:57:23;;;;;;;4.47;2.23;;;;;;;-144.30;76.50;85155.91;5072237;28;20594;-55
2023/09/11 00:59:50;;;;;;;7.47;2.50;;;;;;;-144.30;76.82;85118.13;5071591;28;20230;-54
2023/09/11 01:02:18;;;;;;;3.43;2.40;;;;;;;-144.30;76.90;85165.84;5071916;28;20202;-54
2023/09/11 01:04:46;;;;;;;4.17;2.50;;;;;;;-144.30;77.27;85126.09;5071686;28;20286;-54
2023/09/11 01:07:13;;;;;;;3.03;2.40;;;;;;;-144.30;77.23;85159.88;5071826;28;20672;-49
2023/09/11 01:09:41;;;;;;;4.07;2.80;;;;;;;-144.30;77.43;85199.63;5071784;28;20604;-49
2023/09/11 01:12:08;;;;;;;3.03;2.70;;;;;;;-144.30;77.53;85132.03;5071967;28;20207;-48
2023/09/11 01:14:37;;;;;;;5.13;4.30;;;;;;;-144.30;77.35;85157.88;5071725;28;20562;-55
2023/09/11 01:17:12;;;;;;;4.60;3.60;;;;;;;-144.30;77.02;85141.97;5071518;28;20238;-47
2023/09/11 01:20:09;;;;;;;4.10;3.40;;;;;;;-144.30;76.83;85106.22;5071222;28;20227;-49
2023/09/11 01:23:06;;;;;;;8.77;3.73;;;;;;;-144.30;76.34;85171.81;5071801;28;20192;-53
2023/09/11 01:25:56;;;;;;;5.40;2.93;;;;;;;-144.30;76.27;85149.94;5071301;28;20202;-51
2023/09/11 01:28:49;;;;;;;6.23;2.60;;;;;;;-144.30;76.04;85126.09;5070988;28;20196;-48
2023/09/11 01:31:19;;;;;;;3.47;2.73;;;;;;;-144.30;75.90;85141.97;5071445;28;20646;-48
2023/09/11 01:33:52;;;;;;;3.63;2.87;;;;;;;-144.30;76.17;85149.94;5071119;28;20680;-55
2023/09/11 01:36:19;;;;;;;3.80;2.80;;;;;;;-144.30;76.18;85161.88;5071226;28;20200;-55
2023/09/11 01:38:46;;;;;;;6.03;2.80;;;;;;;-144.30;76.08;85070.44;5071235;28;20200;-55
2023/09/11 01:41:16;;;;;;;4.53;3.43;;;;;;;-144.30;76.02;85153.91;5071183;28;20231;-49
2023/09/11 01:43:46;;;;;;;6.87;3.83;;;;;;;-144.30;76.03;84871.66;5071108;28;20200;-50
2023/09/11 01:46:15;;;;;;;5.07;3.10;;;;;;;-144.30;76.06;85169.81;5071228;28;20603;-50
2023/09/11 01:48:44;;;;;;;3.47;2.97;;;;;;;-144.30;76.39;85126.09;5070868;28;20687;-50
2023/09/11 01:51:13;;;;;;;4.47;2.83;;;;;;;-144.30;76.69;85155.91;5070830;28;20206;-49
2023/09/11 01:53:41;;;;;;;3.47;2.40;;;;;;;-144.30;76.92;85175.78;5071233;28;20291;-54
2023/09/11 01:56:10;;;;;;;2.43;2.00;;;;;;;-144.30;76.78;85151.94;5070858;28;20196;-54
2023/09/11 01:58:36;;;;;;;4.33;3.00;;;;;;;-144.30;77.07;85153.91;5070594;28;20206;-50
2023/09/11 02:01:03;;;;;;;3.23;2.10;;;;;;;-144.30;77.23;85165.84;5070750;28;20230;-48
2023/09/11 02:03:30;;;;;;;6.03;2.20;;;;;;;-144.30;77.45;85181.75;5070585;28;20203;-48
2023/09/11 02:05:58;;;;;;;2.47;2.27;;;;;;;-144.30;77.60;85179.75;5070570;28;20207;-49
2023/09/11 02:08:26;;;;;;;5.07;2.50;;;;;;;-144.30;78.02;85197.66;5070780;28;20196;-48
2023/09/11 02:10:54;;;;;;;4.73;2.50;;;;;;;-144.30;78.80;85181.75;5070323;28;20196;-50
2023/09/11 02:13:20;;;;;;;4.00;2.00;;;;;;;-144.30;78.92;85219.50;5070648;28;20212;-49
2023/09/11 02:15:47;;;;;;;4.33;2.57;;;;;;;-144.30;78.79;85217.53;5070100;28;20206;-48
2023/09/11 02:18:14;;;;;;;4.50;2.43;;;;;;;-144.30;79.29;85217.53;5070223;28;20319;-48
2023/09/11 02:20:41;;;;;;;2.67;2.47;;;;;;;-144.30;79.55;85191.69;5070062;28;20230;-55
2023/09/11 02:23:09;;;;;;;2.73;2.53;;;;;;;-144.30;79.92;85209.56;5070334;28;20202;-55
2023/09/11 02:25:36;;;;;;;4.10;2.30;;;;;;;-144.30;79.66;85255.28;5070189;28;20206;-50
2023/09/11 02:28:03;;;;;;;3.60;2.70;;;;;;;-144.30;79.73;85231.44;5070327;28;20195;-50
2023/09/11 02:30:30;;;;;;;3.43;2.33;;;;;;;-144.30;80.00;85229.44;5070084;28;20196;-49
2023/09/11 02:32:57;;;;;;;5.33;2.53;;;;;;;-144.30;80.43;85221.50;5070184;28;20238;-49
2023/09/11 02:35:24;;;;;;;4.57;2.37;;;;;;;-144.30;80.48;85225.47;5070098;28;20290;-49
2023/09/11 02:37:51;;;;;;;4.40;2.40;;;;;;;-144.30;80.31;85225.47;5069938;28;20202;-49
2023/09/11 02:40:19;;;;;;;3.23;2.50;;;;;;;-144.30;80.45;85239.38;5069296;28;20737;-50
2023/09/11 02:42:45;;;;;;;3.60;2.20;;;;;;;-144.30;80.11;85243.38;5069761;28;20188;-55
2023/09/11 02:45:12;;;;;;;3.20;2.20;;;;;;;-144.30;79.67;85245.34;5070294;28;20233;-47
2023/09/11 02:47:39;;;;;;;3.80;2.47;;;;;;;-144.30;79.50;85247.34;5069727;28;20195;-55
2023/09/11 02:50:07;;;;;;;3.77;2.50;;;;;;;-144.30;79.38;85231.44;5050125;28;20200;-49
2023/09/11 02:52:34;;;;;;;2.73;2.53;;;;;;;-144.30;79.38;85261.25;5050291;28;20210;-54
2023/09/11 02:55:01;;;;;;;3.40;2.40;;;;;;;-144.30;79.44;85245.34;5049994;28;20193;-49
2023/09/11 02:57:30;;;;;;;2.97;2.23;;;;;;;-144.30;79.46;85265.22;5049810;28;20204;-55
2023/09/11 02:59:57;;;;;;;3.67;2.90;;;;;;;-144.30;79.69;85245.34;5049482;28;20220;-50
2023/09/11 03:02:24;;;;;;;4.83;2.70;;;;;;;-144.30;79.97;85277.16;5049638;28;20201;-50
2023/09/11 03:04:51;;;;;;;5.23;2.50;;;;;;;-144.30;80.12;85285.09;5049523;28;20201;-54
2023/09/11 03:07:18;;;;;;;7.73;2.63;;;;;;;-144.30;80.30;85255.28;5049794;28;20200;-49
2023/09/11 03:09:45;;;;;;;4.03;2.40;;;;;;;-144.30;80.12;85289.09;5049529;28;20193;-54
2023/09/11 03:12:12;;;;;;;4.47;2.40;;;;;;;-144.30;80.37;85265.22;5049400;28;20212;-49
2023/09/11 03:14:41;;;;;;;3.13;2.40;;;;;;;-144.30;80.34;85273.19;5050980;28;20675;-48
2023/09/11 03:17:09;;;;;;;2.57;2.37;;;;;;;-144.30;80.15;85316.91;5068494;28;20227;-49
2023/09/11 03:19:37;;;;;;;2.83;2.63;;;;;;;-144.30;80.58;85267.22;5069024;28;20218;-48
2023/09/11 03:22:04;;;;;;;3.23;2.97;;;;;;;-144.30;81.49;85281.13;5069408;28;20200;-53
2023/09/11 03:24:31;;;;;;;3.33;2.67;;;;;;;-144.30;81.90;85320.91;5069234;28;20205;-54
2023/09/11 03:26:58;;;;;;;5.63;2.80;;;;;;;-144.30;82.23;85295.06;5068989;28;20204;-47
2023/09/11 03:29:25;;;;;;;3.87;2.63;;;;;;;-144.30;82.57;85352.69;5068513;28;20473;-53
2023/09/11 03:31:53;;;;;;;4.57;3.33;;;;;;;-144.30;82.78;85289.09;5068869;28;20204;-47
2023/09/11 03:34:20;;;;;;;4.30;2.93;;;;;;;-144.30;82.76;85287.09;5069501;28;20200;-55
2023/09/11 03:36:47;;;;;;;8.73;4.67;;;;;;;-144.30;82.43;85316.91;5069178;28;20200;-55
2023/09/11 03:39:14;;;;;;;15.63;8.50;;;;;;;-144.30;81.95;85257.28;5069147;28;20227;-48
2023/09/11 03:41:41;;;;;;;14.07;9.10;;;;;;;-144.30;81.63;85305.00;5069006;28;20877;-48
2023/09/11 03:44:08;;;;;;;21.57;15.43;;;;;;;-144.30;81.28;85269.22;5069030;28;20207;-49
2023/09/11 03:46:35;;;;;;;23.20;14.50;;;;;;;-144.30;81.21;85277.16;5068915;28;20567;-48
2023/09/11 03:49:03;;;;;;;26.00;17.80;;;;;;;-144.30;81.18;85265.22;5069330;28;20222;-55
2023/09/11 03:51:30;;;;;;;11.23;4.80;;;;;;;-144.30;81.76;85301.00;5070793;28;20703;-48
2023/09/11 03:53:59;;;;;;;41.83;26.67;;;;;;;-144.30;81.62;85295.06;5073054;28;20200;-47
2023/09/11 03:56:26;;;;;;;20.80;13.63;;;;;;;-144.30;81.88;85293.06;5073106;28;20440;-54
2023/09/11 03:58:53;;;;;;;14.30;7.40;;;;;;;-144.30;81.73;85285.09;5072621;28;20199;-54
2023/09/11 04:01:20;;;;;;;3.93;3.53;;;;;;;-144.30;81.03;85275.16;5072547;28;20226;-47
2023/09/11 04:03:47;;;;;;;8.30;4.63;;;;;;;-144.30;80.88;85295.06;5072150;28;20210;-49
2023/09/11 04:06:15;;;;;;;4.47;4.07;;;;;;;-144.30;80.78;85249.34;5073053;28;20207;-49
2023/09/11 04:08:42;;;;;;;12.27;6.37;;;;;;;-144.30;81.03;85253.31;5072233;28;20570;-50
2023/09/11 04:11:09;;;;;;;14.03;9.93;;;;;;;-144.30;81.21;85285.09;5071832;28;20222;-49
2023/09/11 04:13:36;;;;;;;26.73;19.67;;;;;;;-144.30;81.26;85297.03;5071022;28;20192;-49
2023/09/11 04:16:03;;;;;;;15.10;6.43;;;;;;;-144.30;81.31;85271.19;5071690;28;20584;-48
2023/09/11 04:18:30;;;;;;;11.17;5.57;;;;;;;-144.30;82.07;85334.81;5071555;28;20231;-49
2023/09/11 04:21:02;;;;;;;9.87;6.53;;;;;;;-144.30;82.07;85285.09;5071305;28;20220;-49
2023/09/11 04:23:30;;;;;;;11.70;8.10;;;;;;;-144.30;81.75;85289.09;5072135;28;20206;-49
2023/09/11 04:25:57;;;;;;;7.13;4.80;;;;;;;-144.30;81.62;85273.19;5072552;28;20680;-54
2023/09/11 04:28:24;;;;;;;9.00;7.50;;;;;;;-144.30;81.16;85257.28;5072477;28;20204;-54
2023/09/11 04:30:51;;;;;;;22.10;13.17;;;;;;;-144.30;80.94;85273.19;5072279;28;20192;-55
2023/09/11 04:33:19;;;;;;;9.80;4.80;;;;;;;-144.30;80.58;85229.44;5072336;28;20207;-54
2023/09/11 04:35:46;;;;;;;11.13;4.50;;;;;;;-144.30;80.46;85251.31;5072196;28;20200;-54
2023/09/11 04:38:13;;;;;;;9.93;5.03;;;;;;;-144.30;79.71;85265.22;5072544;28;20196;-54
2023/09/11 04:40:41;;;;;;;8.10;4.67;;;;;;;-144.30;79.23;85209.56;5072066;28;20227;-54
2023/09/11 04:43:08;;;;;;;49.50;30.73;;;;;;;-144.30;78.59;85177.75;5072408;28;20623;-54
2023/09/11 04:45:35;;;;;;;18.70;13.23;;;;;;;-144.30;77.31;85177.75;5072177;28;20577;-54
2023/09/11 04:48:02;;;;;;;7.53;3.87;;;;;;;-144.30;77.21;85185.72;5072078;28;20215;-55
2023/09/11 04:50:29;;;;;;;8.23;5.93;;;;;;;-144.30;77.18;85201.63;5071691;28;20228;-55
2023/09/11 04:52:56;;;;;;;19.73;14.73;;;;;;;-144.30;76.38;85151.94;5070479;28;20295;-54
2023/09/11 04:55:23;;;;;;;11.57;4.90;;;;;;;-144.30;75.48;85122.09;5070668;28;20638;-54
2023/09/11 04:57:52;;;;;;;10.00;4.00;;;;;;;-144.30;75.26;85122.09;5071600;28;20196;-55
2023/09/11 05:00:19;;;;;;;28.47;18.87;;;;;;;-144.30;75.06;85114.16;5071905;28;20234;-55
2023/09/11 05:02:48;;;;;;;6.97;5.57;;;;;;;-144.30;73.70;85056.50;5069806;28;20211;-54
2023/09/11 05:05:15;;;;;;;11.93;6.05;;;;;;;-144.30;69.16;84865.69;5072123;28;20196;-49
2023/09/11 05:07:42;;;;;;;5.53;3.67;;;;;;;-144.30;60.68;84583.47;5071931;28;20215;-49
2023/09/11 05:10:09;;;;;;;14.48;3.63;;;;;;;-144.30;52.98;84323.13;5071711;28;20198;-50
2023/09/11 05:12:36;;;;;;;12.98;8.38;;;;;;;-144.30;48.38;84108.50;5071611;28;20203;-50
2023/09/11 05:15:05;;;;;;;6.50;3.70;;;;;;;-144.30;43.76;83778.63;5071665;28;20196;-49
2023/09/11 05:17:32;;;;;;;8.02;6.53;;;;;;;-144.30;40.76;83597.81;5071654;28;20610;-50
2023/09/11 05:19:59;;;;;;;5.53;3.70;;;;;;;-144.30;39.24;83496.50;5071366;28;20232;-50
2023/09/11 05:22:26;;;;;;;7.70;4.22;;;;;;;-144.30;37.86;83319.66;5071543;28;20210;-48
2023/09/11 05:24:53;;;;;;;11.68;5.20;;;;;;;-144.30;35.82;83146.81;5071386;28;20195;-54
2023/09/11 05:27:21;;;;;;;3.50;3.00;;;;;;;-144.30;34.94;83043.50;5071486;28;20196;-55
2023/09/11 05:29:48;;;;;;;6.72;2.90;;;;;;;-144.30;34.07;82622.38;5071309;28;20195;-49
2023/09/11 05:32:18;;;;;;;9.68;8.68;;;;;;;-144.30;33.72;82884.59;5071772;28;20198;-50
2023/09/11 05:34:45;;;;;;;6.15;5.30;;;;;;;-144.30;33.48;82932.28;5071284;28;20287;-50
2023/09/11 05:37:11;;;;;;;26.33;19.63;;;;;;;-144.30;33.57;82848.84;5071382;28;20192;-50
2023/09/11 05:39:38;;;;;;;6.60;3.10;;;;;;;-144.30;32.52;82761.44;5070970;28;20297;-51
2023/09/11 05:42:06;;;;;;;6.93;2.92;;;;;;;-144.30;32.20;82674.03;5071116;28;20216;-58
2023/09/11 05:44:32;;;;;;;7.07;2.95;;;;;;;-144.30;32.02;82741.56;5071027;28;20199;-58
2023/09/11 05:46:59;;;;;;;9.98;3.25;;;;;;;-144.30;32.41;82799.19;5071072;28;20720;-59
2023/09/11 05:49:28;;;;;;;8.32;3.28;;;;;;;-144.30;32.05;82723.69;5071226;28;20200;-57
2023/09/11 05:51:55;;;;;;;4.75;3.00;;;;;;;-144.30;32.20;82723.69;5070890;28;20269;-51
2023/09/11 05:54:22;;;;;;;3.33;3.03;;;;;;;-144.30;31.95;82666.09;5071028;28;20657;-53
2023/09/11 05:56:49;;;;;;;7.78;3.70;;;;;;;-144.30;32.49;82797.19;5070850;28;20555;-53
2023/09/11 05:59:19;;;;;;;8.88;3.75;;;;;;;-144.30;32.49;82773.34;5071079;28;20287;-52
2023/09/11 06:01:46;;;;;;;11.15;3.55;;;;;;;-144.30;31.23;82538.97;5070897;28;20299;-59
2023/09/11 06:04:14;;;;;;;7.93;3.50;;;;;;;-144.30;30.51;82314.50;5070890;28;20203;-60
2023/09/11 06:06:42;;;;;;;7.32;5.07;;;;;;;-144.30;30.27;82260.88;5070405;28;20200;-52
2023/09/11 06:09:09;;;;;;;9.15;4.60;;;;;;;-144.30;29.83;82221.16;5070737;28;20583;-52
2023/09/11 06:11:36;;;;;;;6.70;5.90;;;;;;;-144.30;29.23;82113.91;5070477;28;20211;-53
2023/09/11 06:14:05;;;;;;;5.28;2.90;;;;;;;-144.30;30.17;82352.25;5070590;28;20199;-53
2023/09/11 06:16:32;;;;;;;4.30;3.47;;;;;;;-144.30;30.08;82336.38;5070490;28;20203;-54
2023/09/11 06:18:59;;;;;;;6.70;3.60;;;;;;;-144.30;30.01;82280.75;5070036;28;20240;-53
2023/09/11 06:21:26;;;;;;;8.27;5.20;;;;;;;-144.30;29.84;82260.88;5070450;28;20614;-54
2023/09/11 06:23:54;;;;;;;3.72;2.63;;;;;;;-144.30;29.70;82181.44;5070061;28;20192;-53
2023/09/11 06:26:21;;;;;;;8.73;5.13;;;;;;;-144.30;29.26;82070.22;5070227;28;20207;-58
2023/09/11 06:28:48;;;;;;;5.93;3.30;;;;;;;-144.30;28.71;81893.47;5070440;28;20687;-59
2023/09/11 06:31:15;;;;;;;5.68;3.47;;;;;;;-144.30;28.30;81776.31;5070336;28;20196;-54
2023/09/11 06:33:43;;;;;;;8.60;6.53;;;;;;;-144.30;28.32;81875.59;5070015;28;20692;-59
2023/09/11 06:36:10;;;;;;;9.40;5.32;;;;;;;-144.30;28.17;81792.19;5070233;28;20675;-59
2023/09/11 06:38:37;;;;;;;3.90;3.60;;;;;;;-144.30;28.22;81788.22;5069810;28;20199;-58
2023/09/11 06:41:05;;;;;;;10.98;5.18;;;;;;;-144.30;27.78;81708.78;5070014;28;20219;-58
2023/09/11 06:43:32;;;;;;;8.93;3.55;;;;;;;-144.30;27.53;81601.56;5070086;28;20658;-58
2023/09/11 06:45:59;;;;;;;3.47;2.95;;;;;;;-144.30;27.79;81692.91;5070021;28;20199;-54
2023/09/11 06:48:27;;;;;;;8.73;3.10;;;;;;;-144.30;27.50;81561.84;5069886;28;20199;-54
2023/09/11 06:50:54;;;;;;;4.30;3.30;;;;;;;-144.30;27.18;81406.97;5069795;28;20617;-54
2023/09/11 06:53:21;;;;;;;6.07;3.92;;;;;;;-144.30;26.84;81412.91;5069941;28;20203;-59
2023/09/11 06:55:48;;;;;;;7.28;2.85;;;;;;;-144.30;26.57;81148.84;5069831;28;20667;-59
2023/09/11 06:58:17;;;;;;;3.55;2.53;;;;;;;-144.30;25.90;80984.03;5070052;28;20199;-59
2023/09/11 07:00:44;;;;;;;6.05;2.63;;;;;;;-144.30;25.78;80866.91;5069657;28;20195;-59
2023/09/11 07:03:11;;;;;;;7.00;2.40;;;;;;;-144.30;25.78;80960.22;5069689;28;20199;-59
2023/09/11 07:05:39;;;;;;;9.10;2.38;;;;;;;-144.30;25.99;81053.53;5069328;28;20671;-53
2023/09/11 07:08:06;;;;;;;4.85;2.67;;;;;;;-144.30;26.14;81011.84;5069501;28;20580;-53
2023/09/11 07:10:33;;;;;;;5.40;2.22;;;;;;;-144.30;26.27;81132.94;5069654;28;20198;-54
2023/09/11 07:13:00;;;;;;;5.53;2.45;;;;;;;-144.30;26.49;81172.66;5069776;28;20226;-53
2023/09/11 07:15:28;;;;;;;6.35;2.60;;;;;;;-144.30;25.85;81033.69;5069495;28;20196;-53
2023/09/11 07:17:55;;;;;;;4.68;2.60;;;;;;;-144.30;25.96;80970.16;5069166;28;20764;-53
2023/09/11 07:20:22;;;;;;;5.32;3.28;;;;;;;-144.30;26.02;80866.91;5069712;28;20322;-53
2023/09/11 07:22:49;;;;;;;4.90;3.30;;;;;;;-144.30;25.42;80853.00;5069106;28;20266;-52
2023/09/11 07:25:17;;;;;;;5.90;2.50;;;;;;;-144.30;25.13;80561.19;5069223;28;20286;-53
2023/09/11 07:27:44;;;;;;;6.78;3.20;;;;;;;-144.30;24.98;80493.69;5068849;28;20286;-54
2023/09/11 07:30:11;;;;;;;6.22;3.88;;;;;;;-144.30;24.60;80372.59;5069584;28;20680;-52
2023/09/11 07:32:40;;;;;;;7.78;3.47;;;;;;;-144.30;24.59;80223.72;5069421;28;20196;-52
2023/09/11 07:35:07;;;;;;;8.90;3.33;;;;;;;-144.30;24.54;80229.69;5069417;28;20203;-52
2023/09/11 07:37:35;;;;;;;9.13;3.90;;;;;;;-144.30;24.27;80213.78;5069174;28;20205;-54
2023/09/11 07:40:02;;;;;;;8.23;4.47;;;;;;;-144.30;23.75;80057.00;5069059;28;20187;-53
2023/09/11 07:42:29;;;;;;;4.70;3.00;;;;;;;-144.30;23.79;80049.03;5069138;28;20227;-53
2023/09/11 07:44:56;;;;;;;6.65;3.78;;;;;;;-144.30;23.78;80009.34;5069226;28;20299;-59
2023/09/11 07:47:23;;;;;;;5.97;3.20;;;;;;;-144.30;24.09;80191.97;5068918;28;20499;-58
2023/09/11 07:49:53;;;;;;;3.65;2.17;;;;;;;-144.30;23.63;79929.97;5069304;28;20203;-58
2023/09/11 07:52:20;;;;;;;2.95;2.53;;;;;;;-144.30;23.31;79838.66;5069282;28;20196;-58
2023/09/11 07:54:46;;;;;;;3.42;2.50;;;;;;;-144.30;23.57;79918.06;5069158;28;20675;-58
2023/09/11 07:57:13;;;;;;;4.10;2.30;;;;;;;-144.30;23.39;79832.72;5069266;28;20195;-58
2023/09/11 07:59:40;;;;;;;8.45;3.70;;;;;;;-144.30;23.09;79469.53;5069080;28;20202;-57
2023/09/11 08:02:07;;;;;;;10.57;3.30;;;;;;;-144.30;22.80;79094.47;5069145;28;20227;-58
2023/09/11 08:04:35;;;;;;;4.88;3.03;;;;;;;-144.30;22.52;79132.16;5069316;28;20195;-58
2023/09/11 08:07:04;;;;;;;5.63;3.40;;;;;;;-144.30;22.39;78854.38;5068912;28;20252;-59
2023/09/11 08:09:31;;;;;;;5.40;2.42;;;;;;;-144.30;22.26;78697.63;5069491;28;20318;-53
2023/09/11 08:12:00;;;;;;;10.73;2.83;;;;;;;-144.30;22.05;78439.72;5068971;28;20214;-53
2023/09/11 08:14:27;;;;;;;9.50;2.90;;;;;;;-144.30;22.02;78398.03;5068961;28;20586;-53
2023/09/11 08:16:53;;;;;;;6.45;2.80;;;;;;;-144.30;22.09;78810.72;5068550;28;20191;-53
2023/09/11 08:19:20;;;;;;;5.70;2.30;;;;;;;-144.30;22.51;79128.19;5069096;28;20619;-52
2023/09/11 08:21:48;;;;;;;7.97;2.83;;;;;;;-144.30;22.96;79509.22;5068645;28;20279;-56
2023/09/11 08:24:16;;;;;;;6.47;2.80;;;;;;;-144.30;22.91;79525.09;5068880;28;20242;-53
2023/09/11 08:26:43;;;;;;;7.50;2.80;;;;;;;-144.30;22.99;79761.25;5068590;28;20693;-53
2023/09/11 08:29:12;;;;;;;11.35;2.47;;;;;;;-144.30;23.56;80051.03;5068673;28;20326;-53
2023/09/11 08:31:38;;;;;;;8.35;3.08;;;;;;;-144.30;24.55;80714.03;5068783;28;20562;-51
2023/09/11 08:34:06;;;;;;;6.15;2.63;;;;;;;-144.30;25.76;81418.88;5068609;28;20196;-53
2023/09/11 08:36:32;;;;;;;9.95;2.55;;;;;;;-144.30;27.33;81974.91;5069166;28;20919;-53
2023/09/11 08:39:00;;;;;;;6.63;2.67;;;;;;;-144.30;27.93;82350.28;5070689;28;20199;-59
2023/09/11 08:41:30;;;;;;;5.13;2.40;;;;;;;-144.30;28.56;82262.88;5072149;28;20187;-59
2023/09/11 08:43:57;;;;;;;4.65;3.08;;;;;;;-144.30;28.14;82600.53;5071991;28;20198;-60
2023/09/11 08:46:24;;;;;;;5.80;2.55;;;;;;;-144.30;27.62;82753.50;5072282;28;20592;-59
2023/09/11 08:48:59;;;;;;;5.25;2.63;;;;;;;-144.30;26.33;82844.88;5071986;28;20200;-59
2023/09/11 08:51:38;;;;;;;5.35;2.03;;;;;;;-144.30;25.67;82940.22;5072081;28;20233;-59
2023/09/11 08:54:09;;;;;;;2.08;1.98;;;;;;;-144.30;26.76;82936.25;5072100;28;20195;-60
2023/09/11 08:56:40;;;;;;;5.85;2.15;;;;;;;-144.30;28.01;82995.84;5071959;28;20249;-59
2023/09/11 08:59:10;;;;;;;4.35;2.58;;;;;;;-144.30;28.80;83109.06;5071844;28;20239;-59
2023/09/11 09:01:38;;;;;;;6.85;2.60;;;;;;;-144.30;29.32;83188.53;5071999;28;20199;-59
2023/09/11 09:04:06;;;;;;;3.78;2.40;;;;;;;-144.30;29.65;83240.19;5072149;28;20204;-59
2023/09/11 09:06:34;;;;;;;6.50;2.33;;;;;;;-144.30;29.92;83242.19;5072092;28;20262;-58
2023/09/11 09:09:01;;;;;;;8.57;2.50;;;;;;;-144.30;29.92;83281.91;5071906;28;20227;-58
2023/09/11 09:11:29;;;;;;;2.40;2.13;;;;;;;-144.30;29.73;83273.97;5071725;28;20206;-52
2023/09/11 09:13:59;;;;;;;4.50;2.63;;;;;;;-144.30;29.62;83335.56;5071628;28;20203;-52
2023/09/11 09:16:26;;;;;;;7.95;2.83;;;;;;;-144.30;29.77;83277.94;5071750;28;20193;-53
2023/09/11 09:18:53;;;;;;;5.75;2.92;;;;;;;-144.30;29.23;83234.22;5071394;28;20617;-53
2023/09/11 09:21:25;;;;;;;3.58;2.85;;;;;;;-144.30;29.14;83166.69;5071579;28;20200;-54
2023/09/11 09:23:53;;;;;;;2.85;2.53;;;;;;;-144.30;29.09;83182.56;5071592;28;20564;-54
2023/09/11 09:26:20;;;;;;;3.38;2.35;;;;;;;-144.30;29.50;83174.63;5071642;28;20591;-52
2023/09/11 09:28:48;;;;;;;7.13;2.83;;;;;;;-144.30;29.48;83170.66;5071168;28;20196;-59
2023/09/11 09:31:24;;;;;;;3.20;2.90;;;;;;;-144.30;29.19;83174.63;5071648;28;20204;-59
2023/09/11 09:33:53;;;;;;;8.15;2.75;;;;;;;-144.30;29.19;83836.25;5071146;28;20204;-59
2023/09/11 09:36:20;;;;;;;6.32;2.63;;;;;;;-144.30;28.82;83051.47;5071330;28;20676;-58
2023/09/11 09:38:47;;;;;;;3.80;2.75;;;;;;;-144.30;27.50;82656.16;5071375;28;20200;-53
2023/09/11 09:41:16;;;;;;;4.30;2.40;;;;;;;-144.30;25.63;82173.50;5071458;28;20208;-53
2023/09/11 09:43:52;;;;;;;3.10;2.33;;;;;;;-144.30;25.35;82129.81;5071127;28;20638;-53
2023/09/11 09:46:20;;;;;;;2.47;2.28;;;;;;;-144.30;25.38;82258.91;5071079;28;20591;-53
2023/09/11 09:48:48;;;;;;;7.43;3.35;;;;;;;-144.30;25.98;82380.06;5070813;28;20660;-59
2023/09/11 09:51:15;;;;;;;15.68;2.63;;;;;;;-144.30;26.12;82467.44;5071243;28;20287;-59
2023/09/11 09:53:45;;;;;;;6.35;3.08;;;;;;;-144.30;26.99;82662.09;5065966;28;20730;-59
2023/09/11 09:56:12;;;;;;;4.47;2.78;;;;;;;-144.30;27.40;82805.13;5070773;28;20253;-59
2023/09/11 09:58:42;;;;;;;4.72;2.65;;;;;;;-144.30;27.63;82956.09;5070701;28;20199;-59
2023/09/11 10:01:11;;;;;;;3.33;2.53;;;;;;;-144.30;27.61;82979.94;5071041;28;20740;-58
2023/09/11 10:03:40;;;;;;;3.15;2.50;;;;;;;-144.30;27.84;83065.38;5071037;28;20207;-59
2023/09/11 10:06:09;;;;;;;3.47;2.08;;;;;;;-144.30;28.51;83196.47;5070711;28;20200;-58
2023/09/11 10:08:36;;;;;;;6.13;2.85;;;;;;;-144.30;28.84;83299.78;5070096;28;20196;-59
2023/09/11 10:11:03;;;;;;;4.13;2.30;;;;;;;-144.30;29.19;83434.91;5070497;28;20196;-58
2023/09/11 10:13:32;;;;;;;6.85;2.55;;;;;;;-144.30;29.56;83490.53;5070486;28;20731;-59
2023/09/11 10:16:00;;;;;;;2.90;2.45;;;;;;;-144.30;30.15;83430.91;5070330;28;20196;-51
2023/09/11 10:18:31;;;;;;;2.55;2.40;;;;;;;-144.30;29.74;83440.84;5070326;28;20785;-58
2023/09/11 10:20:59;;;;;;;2.88;2.67;;;;;;;-144.30;30.06;83458.72;5070300;28;20215;-53
2023/09/11 10:23:27;;;;;;;4.43;2.40;;;;;;;-144.30;29.51;83409.06;5069887;28;20192;-59
2023/09/11 10:25:59;;;;;;;3.95;2.85;;;;;;;-144.30;29.49;83377.28;5069946;28;20204;-53
2023/09/11 10:28:34;;;;;;;5.85;2.60;;;;;;;-144.30;29.53;83315.69;5070442;28;20275;-54
2023/09/11 10:31:11;;;;;;;6.88;2.72;;;;;;;-144.30;29.38;83323.63;5070018;28;20206;-53
2023/09/11 10:33:40;;;;;;;5.07;3.17;;;;;;;-144.30;29.06;83359.41;5070335;28;20219;-52
2023/09/11 10:36:12;;;;;;;4.55;2.60;;;;;;;-144.30;28.95;83345.50;5069924;28;20664;-53
2023/09/11 10:38:44;;;;;;;2.33;2.15;;;;;;;-144.30;29.15;83365.34;5069584;28;20290;-53
2023/09/11 10:41:13;;;;;;;4.35;2.85;;;;;;;-144.30;29.31;83385.22;5070088;28;20231;-53
2023/09/11 10:43:41;;;;;;;5.32;2.58;;;;;;;-144.30;29.13;83375.28;5069532;28;20795;-59
2023/09/11 10:46:16;;;;;;;4.05;2.80;;;;;;;-144.30;28.83;83393.16;5070066;28;20192;-59
2023/09/11 10:48:43;;;;;;;6.03;2.28;;;;;;;-144.30;29.46;83389.19;5069589;28;20594;-54
2023/09/11 10:51:10;;;;;;;2.67;2.47;;;;;;;-144.30;29.80;83472.66;5069971;28;20286;-53
2023/09/11 10:53:37;;;;;;;2.33;2.22;;;;;;;-144.30;30.15;83480.59;5069736;28;20216;-59
2023/09/11 10:56:05;;;;;;;4.78;3.25;;;;;;;-144.30;30.20;83556.09;5069685;28;20199;-52
2023/09/11 10:58:32;;;;;;;4.25;2.88;;;;;;;-144.30;30.09;83556.09;5069822;28;20798;-53
2023/09/11 11:00:59;;;;;;;12.30;3.05;;;;;;;-144.30;30.17;83536.22;5057612;28;20207;-58
2023/09/11 11:03:27;;;;;;;3.88;2.80;;;;;;;-144.30;30.03;83512.38;5059092;28;20690;-51
2023/09/11 11:05:55;;;;;;;7.82;3.15;;;;;;;-144.30;29.91;83462.72;5049655;28;20214;-53
2023/09/11 11:08:22;;;;;;;3.40;2.80;;;;;;;-144.30;29.64;83480.59;5049560;28;20295;-52
2023/09/11 11:10:52;;;;;;;4.80;2.47;;;;;;;-144.30;29.63;83522.31;5049566;28;20687;-53
2023/09/11 11:13:20;;;;;;;4.63;2.97;;;;;;;-144.30;29.70;83470.66;5049633;28;20220;-53
2023/09/11 11:15:47;;;;;;;6.90;3.22;;;;;;;-144.30;29.78;83462.72;5049228;28;20287;-53
2023/09/11 11:18:25;;;;;;;4.53;2.72;;;;;;;-144.30;29.39;83440.84;5049494;28;20638;-53
2023/09/11 11:21:04;;;;;;;3.28;3.00;;;;;;;-144.30;29.75;83430.91;5049296;28;20245;-54